createdAt,value
2018-04-01T02:22:03.192Z,13.90
2018-04-01T02:22:36.677Z,19.40
2018-04-01T02:23:36.639Z,19.40
2018-04-01T02:24:36.639Z,18.50
2018-04-01T02:25:36.641Z,19.60
2018-04-01T02:26:36.654Z,18.80
2018-04-01T02:27:36.679Z,18.00
2018-04-01T02:28:36.721Z,17.40
2018-04-01T02:29:36.710Z,16.80
2018-04-01T02:30:36.721Z,16.50
2018-04-01T02:31:36.757Z,17.40
2018-04-01T02:32:36.756Z,18.80
2018-04-01T02:33:36.762Z,18.80
2018-04-01T02:34:36.771Z,18.60
2018-04-01T02:35:36.809Z,19.10
2018-04-01T02:36:36.815Z,19.20
2018-04-01T02:37:36.801Z,19.40
2018-04-01T02:38:36.829Z,19.10
2018-04-01T02:39:36.858Z,18.60
2018-04-01T02:40:36.874Z,20.00
2018-04-01T02:41:36.871Z,19.80
2018-04-01T02:42:36.878Z,19.30
2018-04-01T02:43:36.895Z,18.60
2018-04-01T02:44:36.878Z,19.20
2018-04-01T02:45:37.501Z,18.70
2018-04-01T02:46:36.900Z,19.10
2018-04-01T02:47:36.911Z,18.60
2018-04-01T02:48:36.955Z,18.50
2018-04-01T02:49:36.939Z,20.10
2018-04-01T02:50:36.960Z,20.10
2018-04-01T02:51:36.965Z,18.30
2018-04-01T02:52:36.968Z,18.20
2018-04-01T02:53:36.983Z,18.10
2018-04-01T02:54:37.038Z,17.80
2018-04-01T02:55:37.008Z,17.40
2018-04-01T02:56:37.018Z,18.40
2018-04-01T02:57:37.042Z,18.60
2018-04-01T02:58:37.036Z,17.50
2018-04-01T02:59:37.079Z,17.90
2018-04-01T03:00:37.054Z,17.80
2018-04-01T03:01:37.073Z,17.70
2018-04-01T03:02:37.094Z,18.50
2018-04-01T03:03:37.153Z,18.20
2018-04-01T03:04:37.137Z,18.80
2018-04-01T03:05:37.143Z,19.70
2018-04-01T03:06:37.127Z,19.60
2018-04-01T03:07:37.155Z,17.50
2018-04-01T03:08:37.199Z,17.40
2018-04-01T03:09:37.184Z,17.80
2018-04-01T03:10:37.189Z,18.10
2018-04-01T03:11:37.188Z,18.60
2018-04-01T03:12:37.211Z,18.20
2018-04-01T03:13:37.232Z,17.50
2018-04-01T03:14:37.268Z,17.90
2018-04-01T03:15:37.240Z,18.90
2018-04-01T03:16:37.250Z,19.10
2018-04-01T03:17:37.266Z,18.90
2018-04-01T03:18:37.272Z,19.40
2018-04-01T03:19:37.299Z,20.10
2018-04-01T03:20:37.338Z,19.80
2018-04-01T03:21:37.304Z,19.90
2018-04-01T03:22:37.326Z,20.10
2018-04-01T03:23:37.333Z,19.80
2018-04-01T03:24:37.341Z,19.20
2018-04-01T03:25:37.389Z,18.90
2018-04-01T03:26:37.365Z,18.90
2018-04-01T03:27:37.382Z,18.90
2018-04-01T03:28:37.406Z,18.80
2018-04-01T03:29:37.399Z,19.50
2018-04-01T03:30:37.432Z,20.30
2018-04-01T03:31:37.422Z,20.20
2018-04-01T03:32:37.441Z,20.00
2018-04-01T03:33:37.452Z,20.10
2018-04-01T03:34:37.468Z,20.00
2018-04-01T03:35:37.502Z,20.60
2018-04-01T03:36:37.489Z,20.00
2018-04-01T03:37:37.490Z,20.20
2018-04-01T03:38:37.507Z,19.90
2018-04-01T03:39:37.518Z,20.40
2018-04-01T03:40:37.557Z,20.90
2018-04-01T03:41:37.557Z,19.70
2018-04-01T03:42:37.561Z,20.90
2018-04-01T03:43:37.575Z,19.90
2018-04-01T03:44:37.581Z,20.70
2018-04-01T03:45:37.612Z,21.00
2018-04-01T03:46:37.601Z,20.60
2018-04-01T03:47:37.620Z,20.40
2018-04-01T03:48:37.642Z,21.30
2018-04-01T03:49:37.649Z,19.80
2018-04-01T03:50:37.659Z,20.60
2018-04-01T03:51:37.663Z,20.80
2018-04-01T03:52:37.671Z,21.60
2018-04-01T03:53:37.699Z,20.90
2018-04-01T03:54:37.695Z,20.90
2018-04-01T03:55:37.720Z,20.50
2018-04-01T03:56:37.721Z,21.00
2018-04-01T03:57:37.742Z,21.20
2018-04-01T03:58:37.747Z,21.10
2018-04-01T03:59:37.764Z,21.10
2018-04-01T04:00:37.778Z,19.60
2018-04-01T04:01:37.777Z,19.50
2018-04-01T04:02:37.802Z,20.10
2018-04-01T04:03:37.834Z,21.00
2018-04-01T04:04:37.817Z,22.90
2018-04-01T04:05:37.833Z,23.20
2018-04-01T04:06:37.838Z,22.80
2018-04-01T04:07:37.863Z,22.60
2018-04-01T04:08:37.879Z,22.70
2018-04-01T04:09:37.923Z,23.10
2018-04-01T04:10:37.884Z,23.90
2018-04-01T04:11:37.909Z,25.00
2018-04-01T04:12:37.923Z,24.90
2018-04-01T04:13:37.946Z,24.60
2018-04-01T04:14:37.957Z,24.90
2018-04-01T04:15:37.975Z,23.40
2018-04-01T04:16:37.963Z,22.70
2018-04-01T04:17:37.990Z,22.10
2018-04-01T04:18:38.028Z,22.90
2018-04-01T04:19:37.992Z,23.50
2018-04-01T04:20:38.007Z,22.40
2018-04-01T04:21:38.014Z,22.70
2018-04-01T04:22:38.021Z,22.60
2018-04-01T04:23:38.059Z,21.90
2018-04-01T04:24:38.089Z,20.80
2018-04-01T04:25:38.078Z,21.90
2018-04-01T04:26:38.080Z,21.70
2018-04-01T04:27:38.096Z,21.80
2018-04-01T04:28:38.110Z,21.60
2018-04-01T04:29:38.118Z,21.10
2018-04-01T04:30:38.155Z,21.20
2018-04-01T04:31:38.140Z,17.80
2018-04-01T04:32:38.147Z,17.20
2018-04-01T04:33:38.183Z,16.70
2018-04-01T04:34:38.189Z,17.50
2018-04-01T04:35:38.185Z,18.30
2018-04-01T04:36:38.247Z,17.90
2018-04-01T04:37:38.258Z,18.50
2018-04-01T04:38:38.230Z,17.90
2018-04-01T04:39:38.229Z,18.50
2018-04-01T04:40:38.236Z,18.00
2018-04-01T04:41:38.254Z,18.00
2018-04-01T04:42:38.305Z,17.90
2018-04-01T04:43:38.274Z,19.30
2018-04-01T04:44:38.299Z,19.40
2018-04-01T04:45:38.305Z,19.00
2018-04-01T04:46:38.318Z,19.70
2018-04-01T04:47:38.336Z,19.20
2018-04-01T04:48:38.346Z,19.70
2018-04-01T04:49:38.348Z,18.60
2018-04-01T04:50:38.363Z,18.60
2018-04-01T04:51:38.376Z,19.40
2018-04-01T04:52:38.422Z,20.40
2018-04-01T04:53:38.403Z,28.00
2018-04-01T04:54:38.405Z,45.40
2018-04-01T04:55:38.418Z,47.40
2018-04-01T04:56:38.430Z,24.30
2018-04-01T04:57:38.444Z,20.20
2018-04-01T04:58:38.475Z,19.40
2018-04-01T04:59:38.471Z,17.40
2018-04-01T05:00:38.474Z,22.20
2018-04-01T05:01:38.494Z,17.50
2018-04-01T05:02:38.517Z,16.50
2018-04-01T05:03:38.531Z,16.90
2018-04-01T05:04:38.561Z,16.90
2018-04-01T05:05:38.532Z,20.30
2018-04-01T05:06:38.555Z,36.30
2018-04-01T05:07:38.559Z,75.40
2018-04-01T05:08:38.574Z,30.50
2018-04-01T05:09:38.615Z,18.90
2018-04-01T05:10:38.601Z,17.70
2018-04-01T05:11:38.604Z,17.20
2018-04-01T05:12:38.632Z,17.80
2018-04-01T05:13:38.649Z,18.40
2018-04-01T05:14:38.647Z,59.10
2018-04-01T05:15:38.649Z,35.70
2018-04-01T05:16:38.666Z,50.80
2018-04-01T05:17:38.680Z,30.60
2018-04-01T05:18:38.733Z,23.30
2018-04-01T05:19:38.739Z,20.60
2018-04-01T05:20:38.712Z,19.00
2018-04-01T05:21:38.733Z,17.70
2018-04-01T05:22:38.737Z,18.10
2018-04-01T05:23:38.765Z,19.20
2018-04-01T05:24:38.781Z,19.60
2018-04-01T05:25:38.771Z,20.40
2018-04-01T05:26:38.819Z,19.40
2018-04-01T05:27:38.810Z,21.10
2018-04-01T05:28:38.816Z,18.80
2018-04-01T05:29:38.829Z,14.00
2018-04-01T05:30:38.840Z,11.60
2018-04-01T05:31:38.872Z,21.00
2018-04-01T05:32:38.856Z,23.20
2018-04-01T05:33:38.868Z,22.20
2018-04-01T05:34:38.890Z,23.50
2018-04-01T05:35:38.896Z,16.70
2018-04-01T05:36:38.924Z,10.20
2018-04-01T05:37:38.921Z,10.40
2018-04-01T05:38:38.924Z,9.20
2018-04-01T05:39:38.937Z,11.00
2018-04-01T05:40:38.966Z,9.50
2018-04-01T05:41:38.958Z,11.20
2018-04-01T05:42:38.970Z,11.00
2018-04-01T05:43:38.994Z,5.00
2018-04-01T05:44:38.996Z,5.30
2018-04-01T05:45:39.032Z,5.10
2018-04-01T05:46:39.036Z,5.70
2018-04-01T05:47:39.029Z,6.30
2018-04-01T05:48:39.040Z,6.10
2018-04-01T05:49:39.054Z,6.40
2018-04-01T05:50:39.097Z,6.90
2018-04-01T05:51:39.083Z,4.20
2018-04-01T05:52:39.091Z,3.40
2018-04-01T05:53:39.099Z,3.50
2018-04-01T05:54:39.119Z,3.50
2018-04-01T05:55:39.146Z,3.70
2018-04-01T05:56:39.144Z,3.30
2018-04-01T05:57:39.160Z,3.30
2018-04-01T05:58:39.166Z,3.30
2018-04-01T05:59:39.180Z,3.80
2018-04-01T06:00:39.218Z,3.30
2018-04-01T06:01:39.220Z,3.30
2018-04-01T06:02:39.253Z,3.20
2018-04-01T06:03:39.236Z,3.80
2018-04-01T06:04:39.245Z,4.40
2018-04-01T06:05:39.296Z,4.60
2018-04-01T06:06:39.308Z,5.70
2018-04-01T06:07:39.311Z,6.30
2018-04-01T06:08:39.305Z,9.10
2018-04-01T06:09:39.339Z,14.10
2018-04-01T06:10:39.336Z,7.40
2018-04-01T06:11:39.354Z,9.90
2018-04-01T06:12:39.351Z,8.90
2018-04-01T06:13:39.367Z,7.20
2018-04-01T06:14:39.361Z,7.30
2018-04-01T06:15:39.402Z,8.00
2018-04-01T06:16:39.387Z,8.00
2018-04-01T06:17:39.394Z,7.70
2018-04-01T06:18:39.406Z,7.50
2018-04-01T06:19:39.419Z,7.60
2018-04-01T06:20:39.436Z,7.60
2018-04-01T06:21:39.482Z,7.80
2018-04-01T06:22:39.452Z,8.20
2018-04-01T06:23:39.478Z,7.80
2018-04-01T06:24:39.483Z,8.30
2018-04-01T06:25:39.491Z,7.70
2018-04-01T06:26:39.512Z,5.90
2018-04-01T06:27:39.537Z,3.30
2018-04-01T06:28:39.530Z,3.00
2018-04-01T06:29:39.549Z,3.90
2018-04-01T06:30:39.558Z,3.10
2018-04-01T06:31:39.565Z,3.60
2018-04-01T06:32:39.604Z,4.80
2018-04-01T06:33:39.588Z,5.20
2018-04-01T06:34:39.604Z,4.80
2018-04-01T06:35:39.612Z,5.70
2018-04-01T06:36:39.623Z,5.80
2018-04-01T06:37:39.653Z,6.20
2018-04-01T06:38:39.651Z,5.90
2018-04-01T06:39:39.659Z,5.50
2018-04-01T06:40:39.674Z,4.60
2018-04-01T06:41:39.698Z,5.50
2018-04-01T06:42:39.726Z,5.40
2018-04-01T06:43:39.718Z,6.00
2018-04-01T06:44:39.719Z,6.90
2018-04-01T06:45:39.742Z,6.90
2018-04-01T06:46:39.749Z,4.70
2018-04-01T06:47:39.765Z,6.00
2018-04-01T06:57:51.321Z,5.20
2018-04-01T06:58:50.524Z,5.10
2018-04-01T06:59:50.525Z,4.80
2018-04-01T07:02:44.558Z,5.10
2018-04-01T07:03:44.159Z,3.30
2018-04-01T07:04:44.112Z,3.20
2018-04-01T07:05:44.100Z,2.90
2018-04-01T07:06:44.117Z,2.80
2018-04-01T07:07:44.136Z,2.70
2018-04-01T07:11:19.405Z,2.90
2018-04-01T07:11:46.346Z,2.60
2018-04-01T07:12:44.126Z,2.70
2018-04-01T07:13:44.124Z,2.90
2018-04-01T07:17:12.299Z,2.80
2018-04-01T07:18:12.240Z,2.70
2018-04-01T07:19:12.234Z,2.40
2018-04-01T07:20:12.243Z,2.30
2018-04-01T07:21:12.271Z,2.40
2018-04-01T07:22:12.269Z,2.60
2018-04-01T07:23:12.313Z,3.50
2018-04-01T07:24:12.295Z,3.20
2018-04-01T07:25:12.316Z,2.90
2018-04-01T07:26:12.323Z,2.90
2018-04-01T07:27:12.333Z,2.90
2018-04-01T07:28:12.347Z,2.70
2018-04-01T07:29:12.383Z,3.00
2018-04-01T07:30:12.371Z,2.90
2018-04-01T07:31:12.378Z,2.70
2018-04-01T07:32:12.388Z,2.80
2018-04-01T07:33:12.488Z,2.80
2018-04-01T07:34:12.991Z,3.00
2018-04-01T07:35:12.427Z,2.50
2018-04-01T07:36:12.484Z,2.70
2018-04-01T07:37:31.890Z,2.60
2018-04-01T07:38:12.484Z,3.00
2018-04-01T07:39:12.480Z,2.90
2018-04-01T07:40:12.495Z,2.70
2018-04-01T07:41:12.545Z,3.00
2018-04-01T07:42:12.518Z,3.00
2018-04-01T07:43:12.531Z,2.80
2018-04-01T07:44:12.591Z,2.20
2018-04-01T07:45:12.577Z,2.50
2018-04-01T07:46:12.598Z,2.20
2018-04-01T07:47:12.591Z,2.90
2018-04-01T07:48:12.595Z,3.70
2018-04-01T07:49:12.642Z,2.90
2018-04-01T07:50:12.620Z,2.70
2018-04-01T07:51:12.632Z,2.90
2018-04-01T07:52:12.644Z,3.00
2018-04-01T07:53:12.658Z,2.90
2018-04-01T07:54:12.698Z,3.50
2018-04-01T07:55:12.689Z,2.80
2018-04-01T07:56:12.696Z,4.20
2018-04-01T07:57:12.710Z,3.30
2018-04-01T07:58:12.725Z,3.40
2018-04-01T07:59:12.803Z,3.10
2018-04-01T08:00:12.780Z,3.40
2018-04-01T08:01:12.760Z,3.00
2018-04-01T08:02:12.780Z,3.00
2018-04-01T08:03:12.783Z,2.80
2018-04-01T08:04:12.797Z,2.70
2018-04-01T08:05:12.843Z,2.30
2018-04-01T08:06:12.824Z,3.00
2018-04-01T08:07:12.836Z,2.80
2018-04-01T08:08:12.846Z,2.10
2018-04-01T08:09:12.861Z,2.20
2018-04-01T08:10:12.893Z,2.10
2018-04-01T08:11:12.891Z,2.00
2018-04-01T08:12:12.898Z,2.20
2018-04-01T08:13:12.914Z,2.10
2018-04-01T08:14:12.925Z,1.70
2018-04-01T08:15:12.942Z,2.00
2018-04-01T08:16:12.978Z,1.80
2018-04-01T08:17:12.964Z,1.90
2018-04-01T08:18:12.977Z,2.10
2018-04-01T08:19:12.993Z,2.00
2018-04-01T08:20:13.002Z,2.10
2018-04-01T08:21:13.043Z,1.60
2018-04-01T08:22:13.029Z,1.70
2018-04-01T08:23:13.041Z,1.90
2018-04-01T08:24:13.057Z,1.60
2018-04-01T08:25:13.072Z,2.10
2018-04-01T08:26:13.112Z,1.70
2018-04-01T08:27:13.094Z,1.80
2018-04-01T08:28:13.107Z,1.90
2018-04-01T08:29:13.118Z,1.80
2018-04-01T08:30:13.136Z,1.70
2018-04-01T08:31:13.147Z,1.80
2018-04-01T08:32:13.186Z,1.80
2018-04-01T08:33:13.180Z,1.70
2018-04-01T08:34:13.227Z,1.70
2018-04-01T08:35:13.199Z,1.60
2018-04-01T08:36:13.214Z,1.50
2018-04-01T08:37:13.230Z,1.50
2018-04-01T08:38:13.260Z,1.70
2018-04-01T08:39:13.252Z,2.00
2018-04-01T08:40:13.308Z,1.80
2018-04-01T08:41:13.280Z,2.00
2018-04-01T08:42:13.296Z,2.10
2018-04-01T08:43:13.303Z,2.10
2018-04-01T08:44:13.314Z,2.10
2018-04-01T08:45:13.360Z,2.10
2018-04-01T08:46:13.344Z,2.20
2018-04-01T08:47:13.354Z,2.20
2018-04-01T08:48:13.376Z,2.20
2018-04-01T08:49:13.382Z,2.30
2018-04-01T08:50:13.414Z,1.90
2018-04-01T08:51:13.425Z,2.30
2018-04-01T08:52:13.424Z,2.20
2018-04-01T08:53:13.477Z,2.30
2018-04-01T08:54:13.448Z,2.60
2018-04-01T08:55:13.502Z,2.50
2018-04-01T08:56:13.477Z,2.70
2018-04-01T08:57:13.487Z,2.50
2018-04-01T08:58:13.508Z,2.30
2018-04-01T08:59:13.513Z,2.40
2018-04-01T09:00:13.561Z,2.20
2018-04-01T09:01:13.541Z,2.20
2018-04-01T09:02:13.561Z,2.50
2018-04-01T09:03:13.568Z,2.40
2018-04-01T09:04:13.586Z,2.20
2018-04-01T09:05:13.689Z,2.40
2018-04-01T09:06:13.614Z,2.40
2018-04-01T09:07:13.622Z,2.50
2018-04-01T09:08:13.633Z,2.70
2018-04-01T09:09:13.654Z,2.80
2018-04-01T09:10:13.663Z,2.70
2018-04-01T09:11:13.689Z,2.80
2018-04-01T09:12:13.685Z,2.70
2018-04-01T09:13:13.696Z,3.00
2018-04-01T09:14:13.717Z,2.80
2018-04-01T09:15:13.723Z,2.70
2018-04-01T09:16:13.756Z,2.40
2018-04-01T09:17:13.752Z,2.40
2018-04-01T09:18:13.763Z,2.40
2018-04-01T09:19:13.776Z,2.00
2018-04-01T09:20:13.787Z,2.10
2018-04-01T09:21:13.818Z,2.10
2018-04-01T09:22:13.847Z,2.00
2018-04-01T09:23:13.874Z,2.10
2018-04-01T09:24:13.842Z,1.70
2018-04-01T09:25:13.850Z,1.80
2018-04-01T09:26:13.868Z,1.90
2018-04-01T09:27:13.886Z,2.00
2018-04-01T09:28:13.898Z,1.60
2018-04-01T09:29:13.945Z,1.60
2018-04-01T09:30:13.920Z,1.50
2018-04-01T09:31:13.932Z,1.60
2018-04-01T09:32:13.945Z,1.70
2018-04-01T09:33:13.962Z,1.60
2018-04-01T09:34:13.987Z,1.80
2018-04-01T09:35:13.984Z,1.70
2018-04-01T09:36:13.994Z,1.70
2018-04-01T09:37:14.011Z,1.50
2018-04-01T09:38:14.044Z,1.90
2018-04-01T09:39:14.034Z,1.80
2018-04-01T09:40:14.049Z,1.60
2018-04-01T09:41:14.068Z,1.60
2018-04-01T09:42:14.075Z,1.50
2018-04-01T09:43:14.127Z,2.40
2018-04-01T09:44:14.118Z,2.20
2018-04-01T09:45:14.129Z,1.40
2018-04-01T09:46:14.126Z,1.50
2018-04-01T09:47:14.145Z,1.70
2018-04-01T09:48:14.154Z,2.00
2018-04-01T09:49:14.182Z,1.20
2018-04-01T09:50:14.176Z,1.30
2018-04-01T09:51:14.190Z,1.50
2018-04-01T09:52:14.205Z,1.50
2018-04-01T09:53:14.233Z,1.40
2018-04-01T09:54:14.232Z,1.40
2018-04-01T09:55:14.242Z,1.40
2018-04-01T09:56:14.296Z,1.20
2018-04-01T09:57:14.272Z,1.60
2018-04-01T09:58:14.312Z,1.50
2018-04-01T09:59:14.291Z,1.70
2018-04-01T10:00:14.307Z,1.60
2018-04-01T10:01:14.321Z,1.90
2018-04-01T10:02:14.330Z,1.40
2018-04-01T10:03:14.353Z,1.60
2018-04-01T10:04:14.393Z,1.50
2018-04-01T10:05:14.371Z,1.50
2018-04-01T10:06:14.385Z,1.20
2018-04-01T10:07:14.399Z,1.50
2018-04-01T10:08:14.453Z,1.00
2018-04-01T10:09:14.425Z,0.90
2018-04-01T10:10:14.447Z,1.30
2018-04-01T10:11:14.450Z,1.30
2018-04-01T10:12:14.472Z,0.90
2018-04-01T10:13:14.496Z,1.50
2018-04-01T10:14:14.492Z,0.90
2018-04-01T10:15:14.510Z,0.70
2018-04-01T10:16:14.515Z,0.90
2018-04-01T10:17:14.536Z,1.20
2018-04-01T10:18:14.581Z,1.20
2018-04-01T10:19:14.581Z,1.40
2018-04-01T10:20:14.644Z,1.20
2018-04-01T10:21:14.586Z,1.50
2018-04-01T10:22:14.601Z,1.00
2018-04-01T10:23:14.612Z,0.90
2018-04-01T10:24:14.659Z,0.90
2018-04-01T10:25:14.688Z,1.10
2018-04-01T10:26:14.652Z,2.40
2018-04-01T10:27:14.662Z,5.00
2018-04-01T10:28:14.673Z,3.00
2018-04-01T10:29:14.718Z,1.20
2018-04-01T10:30:14.700Z,1.10
2018-04-01T10:31:14.919Z,2.80
2018-04-01T10:32:14.728Z,1.30
2018-04-01T10:33:14.755Z,1.40
2018-04-01T10:34:14.760Z,1.80
2018-04-01T10:35:14.767Z,11.30
2018-04-01T10:36:14.783Z,1.00
2018-04-01T10:37:14.847Z,0.60
2018-04-01T10:38:14.825Z,0.60
2018-04-01T10:39:14.818Z,0.70
2018-04-01T10:40:14.862Z,0.50
2018-04-01T10:41:14.844Z,0.50
2018-04-01T10:42:14.866Z,0.60
2018-04-01T10:43:14.870Z,0.80
2018-04-01T10:44:14.892Z,0.60
2018-04-01T10:45:14.932Z,0.60
2018-04-01T10:46:14.915Z,0.20
2018-04-01T10:47:14.927Z,0.40
2018-04-01T10:48:14.954Z,0.50
2018-04-01T10:49:15.009Z,0.40
2018-04-01T10:50:16.950Z,0.40
2018-04-01T10:51:14.977Z,1.90
2018-04-01T10:52:14.988Z,2.20
2018-04-01T10:53:15.009Z,2.30
2018-04-01T10:54:15.036Z,1.80
2018-04-01T10:55:15.042Z,0.80
2018-04-01T10:56:15.074Z,0.60
2018-04-01T10:57:15.058Z,0.50
2018-04-01T10:58:15.099Z,0.40
2018-04-01T10:59:15.088Z,0.50
2018-04-01T11:00:15.135Z,0.70
2018-04-01T11:01:15.109Z,0.70
2018-04-01T11:02:15.124Z,1.90
2018-04-01T11:03:15.148Z,1.10
2018-04-01T11:04:15.150Z,1.80
2018-04-01T11:05:15.236Z,1.40
2018-04-01T11:06:15.176Z,1.30
2018-04-01T11:07:15.200Z,2.60
2018-04-01T11:08:15.208Z,2.50
2018-04-01T11:09:15.273Z,1.80
2018-04-01T11:10:15.243Z,0.70
2018-04-01T11:11:15.243Z,1.00
2018-04-01T11:12:15.255Z,2.90
2018-04-01T11:13:15.345Z,0.70
2018-04-01T11:14:15.428Z,0.60
2018-04-01T11:15:15.434Z,3.50
2018-04-01T11:16:15.385Z,0.80
2018-04-01T11:17:15.360Z,0.50
2018-04-01T11:18:15.351Z,0.90
2018-04-01T11:19:15.349Z,0.50
2018-04-01T11:20:15.376Z,1.00
2018-04-01T11:21:15.435Z,0.70
2018-04-01T11:22:15.396Z,1.70
2018-04-01T11:23:15.402Z,3.30
2018-04-01T11:24:15.421Z,1.10
2018-04-01T11:25:15.460Z,0.70
2018-04-01T11:26:15.496Z,0.40
2018-04-01T11:27:15.456Z,0.60
2018-04-01T11:28:15.532Z,0.60
2018-04-01T11:29:15.489Z,0.80
2018-04-01T11:30:15.516Z,0.90
2018-04-01T11:31:17.037Z,0.80
2018-04-01T11:32:15.530Z,0.80
2018-04-01T11:33:15.539Z,0.90
2018-04-01T11:34:15.554Z,1.20
2018-04-01T11:35:15.573Z,0.50
2018-04-01T11:36:15.575Z,0.50
2018-04-01T11:37:15.590Z,0.60
2018-04-01T11:38:15.648Z,0.50
2018-04-01T11:39:15.616Z,1.20
2018-04-01T11:40:15.629Z,0.50
2018-04-01T11:41:15.641Z,0.50
2018-04-01T11:42:15.654Z,0.50
2018-04-01T11:43:15.683Z,0.60
2018-04-01T11:44:15.687Z,0.40
2018-04-01T11:45:15.698Z,0.60
2018-04-01T11:46:15.708Z,0.50
2018-04-01T11:47:15.728Z,0.60
2018-04-01T11:48:15.773Z,0.50
2018-04-01T11:49:15.751Z,0.60
2018-04-01T11:50:15.786Z,0.50
2018-04-01T11:51:15.807Z,0.60
2018-04-01T11:52:15.823Z,0.60
2018-04-01T11:53:15.827Z,0.50
2018-04-01T11:54:15.838Z,0.50
2018-04-01T11:55:16.118Z,0.50
2018-04-01T11:56:15.937Z,0.50
2018-04-01T11:57:15.854Z,0.50
2018-04-01T11:58:15.871Z,0.50
2018-04-01T11:59:15.884Z,0.50
2018-04-01T12:00:15.894Z,0.40
2018-04-01T12:01:15.954Z,0.60
2018-04-01T12:02:16.010Z,0.50
2018-04-01T12:03:15.935Z,0.50
2018-04-01T12:04:15.953Z,0.50
2018-04-01T12:05:15.963Z,0.40
2018-04-01T12:06:16.008Z,0.50
2018-04-01T12:07:15.984Z,0.50
2018-04-01T12:08:16.035Z,0.60
2018-04-01T12:09:16.052Z,0.60
2018-04-01T12:10:16.029Z,0.60
2018-04-01T12:11:16.074Z,0.40
2018-04-01T12:12:17.043Z,0.50
2018-04-01T12:13:16.068Z,0.50
2018-04-01T12:14:16.163Z,0.40
2018-04-01T12:15:16.088Z,0.60
2018-04-01T12:16:16.184Z,0.40
2018-04-01T12:17:16.118Z,0.40
2018-04-01T12:18:16.154Z,0.60
2018-04-01T12:19:16.147Z,0.60
2018-04-01T12:20:16.159Z,0.50
2018-04-01T12:21:16.182Z,0.50
2018-04-01T12:22:16.244Z,0.50
2018-04-01T12:23:16.198Z,0.60
2018-04-01T12:24:16.206Z,0.70
2018-04-01T12:25:16.245Z,0.90
2018-04-01T12:26:16.319Z,0.40
2018-04-01T12:27:16.260Z,0.50
2018-04-01T12:28:16.298Z,0.50
2018-04-01T12:29:16.279Z,0.60
2018-04-01T12:30:16.498Z,0.70
2018-04-01T12:31:16.309Z,1.70
2018-04-01T12:32:16.333Z,3.00
2018-04-01T12:33:16.395Z,0.50
2018-04-01T12:34:16.347Z,0.50
2018-04-01T12:35:16.370Z,0.50
2018-04-01T12:36:16.379Z,0.40
2018-04-01T12:37:16.392Z,0.40
2018-04-01T12:38:16.440Z,0.50
2018-04-01T12:39:16.415Z,0.40
2018-04-01T12:40:16.435Z,1.20
2018-04-01T12:41:16.453Z,0.60
2018-04-01T12:42:16.469Z,0.40
2018-04-01T12:43:16.491Z,0.80
2018-04-01T12:44:16.484Z,0.60
2018-04-01T12:45:16.498Z,0.50
2018-04-01T12:46:16.511Z,0.80
2018-04-01T12:47:16.525Z,0.50
2018-04-01T12:48:16.567Z,0.40
2018-04-01T12:49:16.623Z,0.50
2018-04-01T12:50:16.567Z,0.50
2018-04-01T12:51:16.584Z,0.40
2018-04-01T12:52:16.594Z,0.60
2018-04-01T12:53:16.608Z,0.50
2018-04-01T12:54:16.628Z,0.50
2018-04-01T12:55:16.649Z,0.70
2018-04-01T12:56:16.684Z,0.50
2018-04-01T12:57:16.666Z,0.50
2018-04-01T12:58:16.677Z,0.70
2018-04-01T12:59:16.691Z,0.60
2018-04-01T13:00:16.721Z,0.50
2018-04-01T13:01:16.717Z,0.60
2018-04-01T13:02:16.727Z,0.80
2018-04-01T13:03:16.761Z,0.70
2018-04-01T13:04:16.760Z,0.50
2018-04-01T13:05:16.790Z,0.40
2018-04-01T13:06:16.795Z,0.50
2018-04-01T13:07:16.831Z,0.60
2018-04-01T13:08:16.821Z,0.70
2018-04-01T13:09:16.940Z,0.70
2018-04-01T13:10:16.842Z,0.70
2018-04-01T13:11:16.860Z,0.60
2018-04-01T13:12:16.897Z,0.70
2018-04-01T13:13:16.885Z,0.70
2018-04-01T13:14:16.898Z,0.70
2018-04-01T13:15:17.003Z,0.60
2018-04-01T13:16:16.926Z,0.50
2018-04-01T13:17:16.960Z,0.50
2018-04-01T13:18:16.956Z,0.30
2018-04-01T13:19:17.021Z,0.60
2018-04-01T13:20:17.052Z,0.50
2018-04-01T13:21:17.057Z,0.50
2018-04-01T13:22:24.149Z,0.50
2018-04-01T13:23:17.072Z,0.50
2018-04-01T13:24:17.045Z,0.40
2018-04-01T13:25:17.059Z,0.40
2018-04-01T13:26:17.066Z,0.40
2018-04-01T13:27:17.082Z,0.40
2018-04-01T13:28:17.128Z,0.50
2018-04-01T13:29:17.108Z,0.50
2018-04-01T13:30:19.682Z,0.50
2018-04-01T13:31:17.580Z,0.50
2018-04-01T13:32:17.155Z,0.50
2018-04-01T13:33:17.185Z,0.60
2018-04-01T13:34:17.176Z,0.40
2018-04-01T13:35:17.201Z,0.50
2018-04-01T13:36:17.308Z,0.60
2018-04-01T13:37:17.592Z,0.50
2018-04-01T13:38:17.507Z,0.60
2018-04-01T13:39:17.496Z,0.50
2018-04-01T13:40:17.422Z,0.40
2018-04-01T13:41:17.561Z,0.40
2018-04-01T13:42:17.291Z,0.50
2018-04-01T13:43:17.426Z,0.40
2018-04-01T13:44:17.803Z,0.40
2018-04-01T13:45:17.529Z,0.50
2018-04-01T13:46:17.545Z,0.50
2018-04-01T13:47:17.538Z,0.50
2018-04-01T13:48:18.026Z,0.50
2018-04-01T13:49:17.584Z,0.50
2018-04-01T13:50:17.811Z,0.60
2018-04-01T13:51:17.517Z,0.50
2018-04-01T13:52:17.600Z,0.50
2018-04-01T13:53:17.625Z,0.50
2018-04-01T13:54:17.586Z,0.60
2018-04-01T13:55:17.530Z,0.40
2018-04-01T13:56:17.582Z,0.40
2018-04-01T13:57:17.500Z,0.50
2018-04-01T13:58:17.563Z,0.40
2018-04-01T13:59:17.527Z,0.50
2018-04-01T14:00:17.712Z,0.50
2018-04-01T14:01:17.565Z,0.50
2018-04-01T14:02:17.774Z,0.70
2018-04-01T14:03:17.726Z,0.60
2018-04-01T14:04:17.683Z,0.40
2018-04-01T14:05:17.655Z,0.40
2018-04-01T14:06:17.628Z,0.40
2018-04-01T14:07:17.638Z,0.50
2018-04-01T14:08:17.667Z,0.50
2018-04-01T14:09:17.668Z,0.70
2018-04-01T14:10:17.683Z,0.40
2018-04-01T14:11:17.730Z,0.50
2018-04-01T14:12:17.777Z,0.50
2018-04-01T14:13:17.716Z,0.50
2018-04-01T14:14:17.739Z,0.40
2018-04-01T14:15:17.750Z,0.50
2018-04-01T14:16:17.774Z,0.50
2018-04-01T14:17:17.778Z,0.40
2018-04-01T14:18:17.802Z,0.40
2018-04-01T14:19:18.013Z,0.60
2018-04-01T14:20:17.818Z,0.40
2018-04-01T14:21:17.831Z,0.40
2018-04-01T14:22:17.846Z,0.40
2018-04-01T14:23:18.435Z,0.50
2018-04-01T14:24:17.869Z,0.40
2018-04-01T14:25:17.905Z,0.40
2018-04-01T14:26:17.897Z,0.60
2018-04-01T14:27:17.911Z,0.40
2018-04-01T14:28:17.924Z,0.40
2018-04-01T14:29:17.942Z,0.40
2018-04-01T14:30:17.980Z,0.50
2018-04-01T14:31:17.979Z,0.40
2018-04-01T14:32:17.988Z,0.40
2018-04-01T14:33:17.992Z,0.40
2018-04-01T14:34:18.004Z,0.40
2018-04-01T14:35:18.017Z,0.50
2018-04-01T14:36:18.065Z,0.40
2018-04-01T14:37:18.045Z,0.40
2018-04-01T14:38:18.056Z,0.30
2018-04-01T14:39:18.072Z,0.40
2018-04-01T14:40:18.087Z,1.40
2018-04-01T14:41:18.144Z,2.20
2018-04-01T14:42:18.112Z,2.30
2018-04-01T14:43:18.141Z,1.20
2018-04-01T14:44:18.141Z,0.80
2018-04-01T14:45:18.152Z,0.80
2018-04-01T14:46:18.188Z,0.60
2018-04-01T14:47:18.182Z,0.70
2018-04-01T14:48:18.192Z,1.10
2018-04-01T14:49:18.205Z,1.00
2018-04-01T14:50:18.254Z,0.60
2018-04-01T14:51:18.353Z,1.50
2018-04-01T14:52:18.247Z,3.60
2018-04-01T14:53:18.291Z,3.60
2018-04-01T14:54:18.275Z,1.40
2018-04-01T14:55:18.294Z,1.20
2018-04-01T14:56:18.305Z,2.40
2018-04-01T14:57:18.312Z,2.70
2018-04-01T14:58:18.337Z,0.90
2018-04-01T14:59:18.359Z,1.20
2018-04-01T15:00:18.353Z,2.10
2018-04-01T15:01:18.402Z,1.30
2018-04-01T15:02:18.384Z,1.50
2018-04-01T15:03:18.414Z,0.70
2018-04-01T15:04:18.413Z,0.50
2018-04-01T15:05:18.463Z,0.50
2018-04-01T15:06:18.445Z,0.50
2018-04-01T15:07:18.581Z,0.50
2018-04-01T15:08:18.506Z,0.40
2018-04-01T15:09:18.479Z,0.30
2018-04-01T15:10:18.502Z,0.50
2018-04-01T15:11:18.544Z,0.30
2018-04-01T15:12:18.739Z,0.40
2018-04-01T15:13:18.551Z,0.50
2018-04-01T15:14:18.596Z,0.50
2018-04-01T15:15:18.561Z,0.90
2018-04-01T15:16:18.589Z,1.70
2018-04-01T15:17:18.589Z,1.60
2018-04-01T15:18:18.602Z,0.90
2018-04-01T15:19:18.612Z,0.80
2018-04-01T15:20:18.646Z,0.70
2018-04-01T15:21:18.644Z,0.60
2018-04-01T15:22:18.655Z,3.10
2018-04-01T15:23:18.733Z,4.30
2018-04-01T15:24:18.685Z,4.30
2018-04-01T15:25:18.734Z,3.80
2018-04-01T15:26:18.707Z,3.70
2018-04-01T15:27:18.720Z,4.40
2018-04-01T15:28:18.733Z,3.70
2018-04-01T15:29:18.762Z,3.00
2018-04-01T15:30:18.769Z,4.20
2018-04-01T15:31:18.788Z,2.10
2018-04-01T15:32:18.787Z,0.90
2018-04-01T15:33:18.828Z,0.70
2018-04-01T15:34:18.813Z,0.70
2018-04-01T15:35:18.833Z,0.70
2018-04-01T15:36:18.839Z,0.60
2018-04-01T15:37:18.852Z,1.00
2018-04-01T15:38:18.886Z,1.30
2018-04-01T15:39:18.885Z,1.50
2018-04-01T15:40:18.930Z,1.00
2018-04-01T15:41:18.902Z,0.70
2018-04-01T15:42:18.923Z,0.70
2018-04-01T15:43:18.943Z,0.70
2018-04-01T15:44:18.949Z,0.70
2018-04-01T15:45:19.008Z,0.60
2018-04-01T15:46:18.974Z,0.80
2018-04-01T15:47:18.981Z,0.70
2018-04-01T15:48:19.000Z,0.70